sensor_id;sensor_type;location;lat;lon;timestamp;P1;durP1;ratioP1;P2;durP2;ratioP2
14754;SDS011;7469;50.906;6.952;2023-12-04T00:00:09;18.30;;;11.65;;
14754;SDS011;7469;50.906;6.952;2023-12-04T00:02:39;18.60;;;12.48;;
14754;SDS011;7469;50.906;6.952;2023-12-04T00:05:07;16.77;;;11.65;;
14754;SDS011;7469;50.906;6.952;2023-12-04T00:07:35;18.73;;;12.25;;
14754;SDS011;7469;50.906;6.952;2023-12-04T00:10:03;16.77;;;10.93;;
14754;SDS011;7469;50.906;6.952;2023-12-04T00:12:32;19.10;;;11.90;;
14754;SDS011;7469;50.906;6.952;2023-12-04T00:15:00;14.57;;;10.40;;
14754;SDS011;7469;50.906;6.952;2023-12-04T00:17:28;15.77;;;11.60;;
14754;SDS011;7469;50.906;6.952;2023-12-04T00:19:57;18.27;;;12.00;;
14754;SDS011;7469;50.906;6.952;2023-12-04T00:22:26;20.27;;;11.85;;
14754;SDS011;7469;50.906;6.952;2023-12-04T00:24:55;17.00;;;10.85;;
14754;SDS011;7469;50.906;6.952;2023-12-04T00:27:23;16.50;;;10.97;;
14754;SDS011;7469;50.906;6.952;2023-12-04T00:29:53;18.17;;;11.70;;
14754;SDS011;7469;50.906;6.952;2023-12-04T00:32:21;17.08;;;11.77;;
14754;SDS011;7469;50.906;6.952;2023-12-04T00:34:49;16.15;;;10.88;;
14754;SDS011;7469;50.906;6.952;2023-12-04T00:37:18;16.67;;;11.10;;
14754;SDS011;7469;50.906;6.952;2023-12-04T00:39:46;15.63;;;10.48;;
14754;SDS011;7469;50.906;6.952;2023-12-04T00:42:16;16.77;;;11.00;;
14754;SDS011;7469;50.906;6.952;2023-12-04T00:44:44;16.48;;;10.77;;
14754;SDS011;7469;50.906;6.952;2023-12-04T00:47:12;15.05;;;10.57;;
14754;SDS011;7469;50.906;6.952;2023-12-04T00:49:40;15.82;;;10.05;;
14754;SDS011;7469;50.906;6.952;2023-12-04T00:52:08;17.55;;;10.80;;
14754;SDS011;7469;50.906;6.952;2023-12-04T00:54:39;14.73;;;10.23;;
14754;SDS011;7469;50.906;6.952;2023-12-04T00:57:08;15.70;;;10.63;;
14754;SDS011;7469;50.906;6.952;2023-12-04T00:59:36;16.83;;;10.85;;
14754;SDS011;7469;50.906;6.952;2023-12-04T01:02:04;15.38;;;9.85;;
14754;SDS011;7469;50.906;6.952;2023-12-04T01:04:33;16.90;;;10.50;;
14754;SDS011;7469;50.906;6.952;2023-12-04T01:07:01;16.98;;;9.90;;
14754;SDS011;7469;50.906;6.952;2023-12-04T01:09:29;13.75;;;9.68;;
14754;SDS011;7469;50.906;6.952;2023-12-04T01:11:58;14.43;;;9.35;;
14754;SDS011;7469;50.906;6.952;2023-12-04T01:14:27;15.18;;;10.43;;
14754;SDS011;7469;50.906;6.952;2023-12-04T01:16:55;14.13;;;9.63;;
14754;SDS011;7469;50.906;6.952;2023-12-04T01:19:23;14.82;;;10.32;;
14754;SDS011;7469;50.906;6.952;2023-12-04T01:21:51;13.98;;;9.95;;
14754;SDS011;7469;50.906;6.952;2023-12-04T01:24:20;15.38;;;9.98;;
14754;SDS011;7469;50.906;6.952;2023-12-04T01:26:48;14.95;;;9.95;;
14754;SDS011;7469;50.906;6.952;2023-12-04T01:29:18;14.73;;;9.73;;
14754;SDS011;7469;50.906;6.952;2023-12-04T01:31:45;15.48;;;9.70;;
14754;SDS011;7469;50.906;6.952;2023-12-04T01:34:13;15.20;;;9.80;;
14754;SDS011;7469;50.906;6.952;2023-12-04T01:36:41;15.63;;;10.20;;
14754;SDS011;7469;50.906;6.952;2023-12-04T01:39:09;16.30;;;10.57;;
14754;SDS011;7469;50.906;6.952;2023-12-04T01:41:37;16.45;;;9.00;;
14754;SDS011;7469;50.906;6.952;2023-12-04T01:44:06;14.93;;;10.02;;
14754;SDS011;7469;50.906;6.952;2023-12-04T01:46:36;13.00;;;9.25;;
14754;SDS011;7469;50.906;6.952;2023-12-04T01:49:05;13.43;;;9.52;;
14754;SDS011;7469;50.906;6.952;2023-12-04T01:51:33;15.52;;;9.43;;
14754;SDS011;7469;50.906;6.952;2023-12-04T01:54:02;13.43;;;8.82;;
14754;SDS011;7469;50.906;6.952;2023-12-04T01:56:32;13.75;;;9.13;;
14754;SDS011;7469;50.906;6.952;2023-12-04T01:59:01;14.63;;;9.90;;
14754;SDS011;7469;50.906;6.952;2023-12-04T02:01:29;14.55;;;8.98;;
14754;SDS011;7469;50.906;6.952;2023-12-04T02:04:00;12.57;;;9.50;;
14754;SDS011;7469;50.906;6.952;2023-12-04T02:06:30;14.48;;;9.68;;
14754;SDS011;7469;50.906;6.952;2023-12-04T02:08:58;13.93;;;9.50;;
14754;SDS011;7469;50.906;6.952;2023-12-04T02:11:26;12.60;;;8.57;;
14754;SDS011;7469;50.906;6.952;2023-12-04T02:13:54;14.65;;;9.52;;
14754;SDS011;7469;50.906;6.952;2023-12-04T02:16:23;11.52;;;7.95;;
14754;SDS011;7469;50.906;6.952;2023-12-04T02:18:53;13.18;;;9.35;;
14754;SDS011;7469;50.906;6.952;2023-12-04T02:21:23;12.27;;;7.93;;
14754;SDS011;7469;50.906;6.952;2023-12-04T02:23:52;16.58;;;9.65;;
14754;SDS011;7469;50.906;6.952;2023-12-04T02:26:22;14.38;;;9.10;;
14754;SDS011;7469;50.906;6.952;2023-12-04T02:28:58;14.40;;;9.10;;
14754;SDS011;7469;50.906;6.952;2023-12-04T02:31:28;12.45;;;8.85;;
14754;SDS011;7469;50.906;6.952;2023-12-04T02:33:58;13.20;;;8.73;;
14754;SDS011;7469;50.906;6.952;2023-12-04T02:36:28;11.60;;;7.80;;
14754;SDS011;7469;50.906;6.952;2023-12-04T02:38:59;15.20;;;9.23;;
14754;SDS011;7469;50.906;6.952;2023-12-04T02:41:27;13.23;;;8.60;;
14754;SDS011;7469;50.906;6.952;2023-12-04T02:43:55;13.82;;;8.63;;
14754;SDS011;7469;50.906;6.952;2023-12-04T02:46:23;13.55;;;8.80;;
14754;SDS011;7469;50.906;6.952;2023-12-04T02:48:51;15.05;;;10.07;;
14754;SDS011;7469;50.906;6.952;2023-12-04T02:51:20;11.90;;;8.60;;
14754;SDS011;7469;50.906;6.952;2023-12-04T02:53:48;12.20;;;8.68;;
14754;SDS011;7469;50.906;6.952;2023-12-04T02:56:17;15.15;;;9.90;;
14754;SDS011;7469;50.906;6.952;2023-12-04T02:58:45;15.13;;;8.95;;
14754;SDS011;7469;50.906;6.952;2023-12-04T03:01:13;12.13;;;8.97;;
14754;SDS011;7469;50.906;6.952;2023-12-04T03:03:41;12.90;;;9.18;;
14754;SDS011;7469;50.906;6.952;2023-12-04T03:06:09;12.18;;;8.07;;
14754;SDS011;7469;50.906;6.952;2023-12-04T03:08:37;13.10;;;7.97;;
14754;SDS011;7469;50.906;6.952;2023-12-04T03:11:05;14.50;;;9.30;;
14754;SDS011;7469;50.906;6.952;2023-12-04T03:13:34;11.77;;;8.63;;
14754;SDS011;7469;50.906;6.952;2023-12-04T03:16:02;11.45;;;7.88;;
14754;SDS011;7469;50.906;6.952;2023-12-04T03:18:31;12.70;;;8.38;;
14754;SDS011;7469;50.906;6.952;2023-12-04T03:20:59;12.43;;;8.70;;
14754;SDS011;7469;50.906;6.952;2023-12-04T03:23:27;12.13;;;8.32;;
14754;SDS011;7469;50.906;6.952;2023-12-04T03:25:56;12.80;;;8.02;;
14754;SDS011;7469;50.906;6.952;2023-12-04T03:28:24;13.40;;;9.23;;
14754;SDS011;7469;50.906;6.952;2023-12-04T03:30:54;12.20;;;8.70;;
14754;SDS011;7469;50.906;6.952;2023-12-04T03:33:22;12.70;;;8.10;;
14754;SDS011;7469;50.906;6.952;2023-12-04T03:35:50;13.10;;;9.13;;
14754;SDS011;7469;50.906;6.952;2023-12-04T03:38:18;12.02;;;7.82;;
14754;SDS011;7469;50.906;6.952;2023-12-04T03:40:46;14.40;;;9.05;;
14754;SDS011;7469;50.906;6.952;2023-12-04T03:43:14;11.32;;;7.95;;
14754;SDS011;7469;50.906;6.952;2023-12-04T03:45:42;12.07;;;8.25;;
14754;SDS011;7469;50.906;6.952;2023-12-04T03:48:11;13.65;;;8.30;;
14754;SDS011;7469;50.906;6.952;2023-12-04T03:50:39;14.05;;;9.57;;
14754;SDS011;7469;50.906;6.952;2023-12-04T03:53:07;12.57;;;8.80;;
14754;SDS011;7469;50.906;6.952;2023-12-04T03:55:35;11.73;;;8.32;;
14754;SDS011;7469;50.906;6.952;2023-12-04T03:58:03;10.80;;;7.50;;
14754;SDS011;7469;50.906;6.952;2023-12-04T04:00:31;14.63;;;8.43;;
14754;SDS011;7469;50.906;6.952;2023-12-04T04:03:00;14.45;;;8.60;;
14754;SDS011;7469;50.906;6.952;2023-12-04T04:05:29;14.33;;;9.20;;
14754;SDS011;7469;50.906;6.952;2023-12-04T04:08:00;13.05;;;8.63;;
14754;SDS011;7469;50.906;6.952;2023-12-04T04:10:28;11.88;;;8.60;;
14754;SDS011;7469;50.906;6.952;2023-12-04T04:12:56;11.43;;;8.40;;
14754;SDS011;7469;50.906;6.952;2023-12-04T04:15:24;12.15;;;8.93;;
14754;SDS011;7469;50.906;6.952;2023-12-04T04:17:52;11.77;;;7.85;;
14754;SDS011;7469;50.906;6.952;2023-12-04T04:20:20;12.75;;;8.55;;
14754;SDS011;7469;50.906;6.952;2023-12-04T04:22:49;12.60;;;9.07;;
14754;SDS011;7469;50.906;6.952;2023-12-04T04:25:18;11.82;;;9.27;;
14754;SDS011;7469;50.906;6.952;2023-12-04T04:27:48;12.77;;;9.05;;
14754;SDS011;7469;50.906;6.952;2023-12-04T04:30:15;17.85;;;10.25;;
14754;SDS011;7469;50.906;6.952;2023-12-04T04:32:44;12.30;;;9.00;;
14754;SDS011;7469;50.906;6.952;2023-12-04T04:35:12;15.32;;;10.02;;
14754;SDS011;7469;50.906;6.952;2023-12-04T04:37:40;15.18;;;10.02;;
14754;SDS011;7469;50.906;6.952;2023-12-04T04:40:12;16.08;;;10.50;;
14754;SDS011;7469;50.906;6.952;2023-12-04T04:42:40;14.40;;;10.55;;
14754;SDS011;7469;50.906;6.952;2023-12-04T04:45:08;16.75;;;10.95;;
14754;SDS011;7469;50.906;6.952;2023-12-04T04:47:37;17.42;;;10.82;;
14754;SDS011;7469;50.906;6.952;2023-12-04T04:50:05;16.48;;;11.18;;
14754;SDS011;7469;50.906;6.952;2023-12-04T04:52:34;18.95;;;11.55;;
14754;SDS011;7469;50.906;6.952;2023-12-04T04:55:04;16.42;;;11.73;;
14754;SDS011;7469;50.906;6.952;2023-12-04T04:57:34;15.73;;;10.43;;
14754;SDS011;7469;50.906;6.952;2023-12-04T05:00:02;16.52;;;10.18;;
14754;SDS011;7469;50.906;6.952;2023-12-04T05:02:30;15.68;;;10.95;;
14754;SDS011;7469;50.906;6.952;2023-12-04T05:04:59;14.43;;;10.27;;
14754;SDS011;7469;50.906;6.952;2023-12-04T05:07:30;13.48;;;9.88;;
14754;SDS011;7469;50.906;6.952;2023-12-04T05:09:58;14.73;;;10.52;;
14754;SDS011;7469;50.906;6.952;2023-12-04T05:12:25;15.43;;;9.93;;
14754;SDS011;7469;50.906;6.952;2023-12-04T05:14:55;16.50;;;10.63;;
14754;SDS011;7469;50.906;6.952;2023-12-04T05:17:23;17.42;;;10.98;;
14754;SDS011;7469;50.906;6.952;2023-12-04T05:19:51;14.00;;;10.15;;
14754;SDS011;7469;50.906;6.952;2023-12-04T05:22:19;15.40;;;10.30;;
14754;SDS011;7469;50.906;6.952;2023-12-04T05:24:47;16.10;;;10.98;;
14754;SDS011;7469;50.906;6.952;2023-12-04T05:27:15;15.55;;;11.27;;
14754;SDS011;7469;50.906;6.952;2023-12-04T05:29:43;15.75;;;10.95;;
14754;SDS011;7469;50.906;6.952;2023-12-04T05:32:12;13.73;;;9.73;;
14754;SDS011;7469;50.906;6.952;2023-12-04T05:34:41;15.70;;;10.90;;
14754;SDS011;7469;50.906;6.952;2023-12-04T05:37:09;15.15;;;11.23;;
14754;SDS011;7469;50.906;6.952;2023-12-04T05:39:37;15.70;;;10.40;;
14754;SDS011;7469;50.906;6.952;2023-12-04T05:42:05;14.98;;;9.80;;
14754;SDS011;7469;50.906;6.952;2023-12-04T05:44:33;16.17;;;10.40;;
14754;SDS011;7469;50.906;6.952;2023-12-04T05:47:01;14.90;;;10.60;;
14754;SDS011;7469;50.906;6.952;2023-12-04T05:49:31;14.32;;;9.90;;
14754;SDS011;7469;50.906;6.952;2023-12-04T05:51:59;14.18;;;9.52;;
14754;SDS011;7469;50.906;6.952;2023-12-04T05:54:27;16.67;;;10.15;;
14754;SDS011;7469;50.906;6.952;2023-12-04T05:56:55;16.48;;;11.13;;
14754;SDS011;7469;50.906;6.952;2023-12-04T05:59:23;16.40;;;10.23;;
14754;SDS011;7469;50.906;6.952;2023-12-04T06:01:51;14.80;;;10.68;;
14754;SDS011;7469;50.906;6.952;2023-12-04T06:04:19;16.60;;;11.88;;
14754;SDS011;7469;50.906;6.952;2023-12-04T06:06:48;16.25;;;11.52;;
14754;SDS011;7469;50.906;6.952;2023-12-04T06:09:16;17.85;;;11.82;;
14754;SDS011;7469;50.906;6.952;2023-12-04T06:11:45;17.70;;;12.50;;
14754;SDS011;7469;50.906;6.952;2023-12-04T06:14:13;18.23;;;12.90;;
14754;SDS011;7469;50.906;6.952;2023-12-04T06:16:41;19.40;;;13.52;;
14754;SDS011;7469;50.906;6.952;2023-12-04T06:19:09;18.75;;;10.48;;
14754;SDS011;7469;50.906;6.952;2023-12-04T06:21:37;15.73;;;10.07;;
14754;SDS011;7469;50.906;6.952;2023-12-04T06:24:07;18.15;;;12.20;;
14754;SDS011;7469;50.906;6.952;2023-12-04T06:26:36;17.60;;;12.60;;
14754;SDS011;7469;50.906;6.952;2023-12-04T06:29:08;19.83;;;12.73;;
14754;SDS011;7469;50.906;6.952;2023-12-04T06:31:37;20.88;;;13.23;;
14754;SDS011;7469;50.906;6.952;2023-12-04T06:34:05;18.83;;;12.63;;
14754;SDS011;7469;50.906;6.952;2023-12-04T06:36:35;17.70;;;12.05;;
14754;SDS011;7469;50.906;6.952;2023-12-04T06:39:09;16.98;;;11.98;;
14754;SDS011;7469;50.906;6.952;2023-12-04T06:41:38;20.38;;;13.15;;
14754;SDS011;7469;50.906;6.952;2023-12-04T06:44:07;19.25;;;13.10;;
14754;SDS011;7469;50.906;6.952;2023-12-04T06:46:37;18.88;;;11.38;;
14754;SDS011;7469;50.906;6.952;2023-12-04T06:49:05;17.63;;;12.00;;
14754;SDS011;7469;50.906;6.952;2023-12-04T06:51:36;22.85;;;12.95;;
14754;SDS011;7469;50.906;6.952;2023-12-04T06:54:04;19.15;;;13.38;;
14754;SDS011;7469;50.906;6.952;2023-12-04T06:56:33;20.33;;;13.48;;
14754;SDS011;7469;50.906;6.952;2023-12-04T06:59:01;20.10;;;12.50;;
14754;SDS011;7469;50.906;6.952;2023-12-04T07:01:30;17.75;;;11.82;;
14754;SDS011;7469;50.906;6.952;2023-12-04T07:03:58;17.10;;;11.52;;
14754;SDS011;7469;50.906;6.952;2023-12-04T07:06:26;19.27;;;12.45;;
14754;SDS011;7469;50.906;6.952;2023-12-04T07:08:54;20.33;;;12.80;;
14754;SDS011;7469;50.906;6.952;2023-12-04T07:11:22;16.73;;;11.73;;
14754;SDS011;7469;50.906;6.952;2023-12-04T07:13:52;18.90;;;12.50;;
14754;SDS011;7469;50.906;6.952;2023-12-04T07:16:20;17.23;;;12.27;;
14754;SDS011;7469;50.906;6.952;2023-12-04T07:18:48;18.48;;;11.80;;
14754;SDS011;7469;50.906;6.952;2023-12-04T07:21:16;16.85;;;11.77;;
14754;SDS011;7469;50.906;6.952;2023-12-04T07:23:44;15.57;;;11.00;;
14754;SDS011;7469;50.906;6.952;2023-12-04T07:26:12;17.98;;;11.63;;
14754;SDS011;7469;50.906;6.952;2023-12-04T07:28:40;18.13;;;11.60;;
14754;SDS011;7469;50.906;6.952;2023-12-04T07:31:09;17.55;;;11.73;;
14754;SDS011;7469;50.906;6.952;2023-12-04T07:33:38;17.20;;;11.45;;
14754;SDS011;7469;50.906;6.952;2023-12-04T07:36:07;17.70;;;12.05;;
14754;SDS011;7469;50.906;6.952;2023-12-04T07:38:35;16.15;;;10.25;;
14754;SDS011;7469;50.906;6.952;2023-12-04T07:41:03;16.17;;;11.65;;
14754;SDS011;7469;50.906;6.952;2023-12-04T07:43:32;16.38;;;11.13;;
14754;SDS011;7469;50.906;6.952;2023-12-04T07:46:00;16.90;;;11.38;;
14754;SDS011;7469;50.906;6.952;2023-12-04T07:48:29;14.82;;;10.77;;
14754;SDS011;7469;50.906;6.952;2023-12-04T07:50:58;16.23;;;10.68;;
14754;SDS011;7469;50.906;6.952;2023-12-04T07:53:26;16.40;;;11.45;;
14754;SDS011;7469;50.906;6.952;2023-12-04T07:55:54;17.65;;;11.77;;
14754;SDS011;7469;50.906;6.952;2023-12-04T07:58:21;17.33;;;11.73;;
14754;SDS011;7469;50.906;6.952;2023-12-04T08:00:49;18.33;;;11.13;;
14754;SDS011;7469;50.906;6.952;2023-12-04T08:03:17;17.42;;;11.57;;
14754;SDS011;7469;50.906;6.952;2023-12-04T08:05:47;14.68;;;10.25;;
14754;SDS011;7469;50.906;6.952;2023-12-04T08:08:15;18.15;;;12.15;;
14754;SDS011;7469;50.906;6.952;2023-12-04T08:10:43;17.38;;;11.82;;
14754;SDS011;7469;50.906;6.952;2023-12-04T08:13:11;18.55;;;11.80;;
14754;SDS011;7469;50.906;6.952;2023-12-04T08:15:39;17.38;;;12.15;;
14754;SDS011;7469;50.906;6.952;2023-12-04T08:18:07;15.90;;;11.38;;
14754;SDS011;7469;50.906;6.952;2023-12-04T08:20:35;16.15;;;11.18;;
14754;SDS011;7469;50.906;6.952;2023-12-04T08:23:08;15.27;;;10.45;;
14754;SDS011;7469;50.906;6.952;2023-12-04T08:25:36;18.48;;;12.25;;
14754;SDS011;7469;50.906;6.952;2023-12-04T08:28:05;16.58;;;11.23;;
14754;SDS011;7469;50.906;6.952;2023-12-04T08:30:35;16.95;;;11.77;;
14754;SDS011;7469;50.906;6.952;2023-12-04T08:33:03;15.30;;;10.23;;
14754;SDS011;7469;50.906;6.952;2023-12-04T08:35:31;14.68;;;10.13;;
14754;SDS011;7469;50.906;6.952;2023-12-04T08:37:59;15.32;;;10.23;;
14754;SDS011;7469;50.906;6.952;2023-12-04T08:40:30;16.08;;;10.77;;
14754;SDS011;7469;50.906;6.952;2023-12-04T08:42:59;16.02;;;10.90;;
14754;SDS011;7469;50.906;6.952;2023-12-04T08:45:27;16.52;;;11.32;;
14754;SDS011;7469;50.906;6.952;2023-12-04T08:47:55;15.75;;;10.38;;
14754;SDS011;7469;50.906;6.952;2023-12-04T08:50:23;14.07;;;9.68;;
14754;SDS011;7469;50.906;6.952;2023-12-04T08:52:51;15.73;;;10.15;;
14754;SDS011;7469;50.906;6.952;2023-12-04T08:55:19;17.70;;;10.82;;
14754;SDS011;7469;50.906;6.952;2023-12-04T08:57:49;16.25;;;11.45;;
14754;SDS011;7469;50.906;6.952;2023-12-04T09:00:17;15.07;;;9.98;;
14754;SDS011;7469;50.906;6.952;2023-12-04T09:02:45;15.73;;;10.48;;
14754;SDS011;7469;50.906;6.952;2023-12-04T09:05:23;15.38;;;9.50;;
14754;SDS011;7469;50.906;6.952;2023-12-04T09:07:51;14.50;;;10.75;;
14754;SDS011;7469;50.906;6.952;2023-12-04T09:10:22;15.95;;;10.75;;
14754;SDS011;7469;50.906;6.952;2023-12-04T09:13:11;14.55;;;9.93;;
14754;SDS011;7469;50.906;6.952;2023-12-04T09:15:39;14.45;;;9.57;;
14754;SDS011;7469;50.906;6.952;2023-12-04T09:18:07;14.45;;;9.98;;
14754;SDS011;7469;50.906;6.952;2023-12-04T09:20:35;12.95;;;9.15;;
14754;SDS011;7469;50.906;6.952;2023-12-04T09:23:04;15.75;;;10.45;;
14754;SDS011;7469;50.906;6.952;2023-12-04T09:25:34;14.95;;;10.10;;
14754;SDS011;7469;50.906;6.952;2023-12-04T09:28:03;15.05;;;10.07;;
14754;SDS011;7469;50.906;6.952;2023-12-04T09:30:33;13.57;;;9.73;;
14754;SDS011;7469;50.906;6.952;2023-12-04T09:33:01;15.07;;;9.80;;
14754;SDS011;7469;50.906;6.952;2023-12-04T09:35:29;13.90;;;9.27;;
14754;SDS011;7469;50.906;6.952;2023-12-04T09:37:57;13.70;;;9.77;;
14754;SDS011;7469;50.906;6.952;2023-12-04T09:40:26;14.52;;;9.73;;
14754;SDS011;7469;50.906;6.952;2023-12-04T09:42:57;18.30;;;10.55;;
14754;SDS011;7469;50.906;6.952;2023-12-04T09:45:25;15.37;;;10.60;;
14754;SDS011;7469;50.906;6.952;2023-12-04T09:47:57;13.48;;;9.18;;
14754;SDS011;7469;50.906;6.952;2023-12-04T09:50:27;16.60;;;9.53;;
14754;SDS011;7469;50.906;6.952;2023-12-04T09:52:55;14.80;;;10.20;;
14754;SDS011;7469;50.906;6.952;2023-12-04T09:55:27;13.30;;;9.60;;
14754;SDS011;7469;50.906;6.952;2023-12-04T09:57:55;13.35;;;8.98;;
14754;SDS011;7469;50.906;6.952;2023-12-04T10:00:24;14.98;;;10.00;;
14754;SDS011;7469;50.906;6.952;2023-12-04T10:02:53;16.77;;;11.00;;
14754;SDS011;7469;50.906;6.952;2023-12-04T10:05:24;13.20;;;8.80;;
14754;SDS011;7469;50.906;6.952;2023-12-04T10:07:51;12.80;;;8.90;;
14754;SDS011;7469;50.906;6.952;2023-12-04T10:10:19;14.60;;;9.82;;
14754;SDS011;7469;50.906;6.952;2023-12-04T10:12:47;13.23;;;9.48;;
14754;SDS011;7469;50.906;6.952;2023-12-04T10:15:15;13.73;;;9.55;;
14754;SDS011;7469;50.906;6.952;2023-12-04T10:17:44;14.20;;;9.53;;
14754;SDS011;7469;50.906;6.952;2023-12-04T10:20:13;13.77;;;9.67;;
14754;SDS011;7469;50.906;6.952;2023-12-04T10:25:31;12.60;;;8.35;;
14754;SDS011;7469;50.906;6.952;2023-12-04T10:28:07;14.60;;;9.80;;
14754;SDS011;7469;50.906;6.952;2023-12-04T10:30:36;12.40;;;9.20;;
14754;SDS011;7469;50.906;6.952;2023-12-04T10:33:05;12.20;;;8.47;;
14754;SDS011;7469;50.906;6.952;2023-12-04T10:35:34;15.77;;;9.20;;
14754;SDS011;7469;50.906;6.952;2023-12-04T10:38:06;14.20;;;9.30;;
14754;SDS011;7469;50.906;6.952;2023-12-04T10:40:35;14.60;;;9.98;;
14754;SDS011;7469;50.906;6.952;2023-12-04T10:43:10;11.93;;;8.85;;
14754;SDS011;7469;50.906;6.952;2023-12-04T10:45:40;12.25;;;8.73;;
14754;SDS011;7469;50.906;6.952;2023-12-04T10:48:10;14.33;;;9.63;;
14754;SDS011;7469;50.906;6.952;2023-12-04T10:50:40;14.10;;;8.57;;
14754;SDS011;7469;50.906;6.952;2023-12-04T10:53:11;13.52;;;9.38;;
14754;SDS011;7469;50.906;6.952;2023-12-04T10:55:40;13.90;;;9.03;;
14754;SDS011;7469;50.906;6.952;2023-12-04T10:58:09;12.83;;;9.50;;
14754;SDS011;7469;50.906;6.952;2023-12-04T11:00:39;13.53;;;8.43;;
14754;SDS011;7469;50.906;6.952;2023-12-04T11:03:13;14.57;;;9.20;;
14754;SDS011;7469;50.906;6.952;2023-12-04T11:05:45;13.43;;;9.33;;
14754;SDS011;7469;50.906;6.952;2023-12-04T11:08:17;12.52;;;8.85;;
14754;SDS011;7469;50.906;6.952;2023-12-04T11:10:50;15.50;;;9.93;;
14754;SDS011;7469;50.906;6.952;2023-12-04T11:13:23;12.77;;;9.23;;
14754;SDS011;7469;50.906;6.952;2023-12-04T11:15:56;13.00;;;8.37;;
14754;SDS011;7469;50.906;6.952;2023-12-04T11:18:30;16.58;;;8.98;;
14754;SDS011;7469;50.906;6.952;2023-12-04T11:21:04;12.23;;;8.33;;
14754;SDS011;7469;50.906;6.952;2023-12-04T11:23:36;13.83;;;9.30;;
14754;SDS011;7469;50.906;6.952;2023-12-04T11:26:06;13.03;;;9.20;;
14754;SDS011;7469;50.906;6.952;2023-12-04T11:28:36;15.60;;;9.10;;
14754;SDS011;7469;50.906;6.952;2023-12-04T11:31:05;13.67;;;9.37;;
14754;SDS011;7469;50.906;6.952;2023-12-04T11:33:34;15.47;;;10.20;;
14754;SDS011;7469;50.906;6.952;2023-12-04T11:36:11;13.00;;;9.53;;
14754;SDS011;7469;50.906;6.952;2023-12-04T11:38:44;12.20;;;9.07;;
14754;SDS011;7469;50.906;6.952;2023-12-04T11:41:14;15.02;;;9.00;;
14754;SDS011;7469;50.906;6.952;2023-12-04T11:43:48;14.77;;;9.60;;
14754;SDS011;7469;50.906;6.952;2023-12-04T11:46:18;14.00;;;9.87;;
14754;SDS011;7469;50.906;6.952;2023-12-04T11:48:48;15.97;;;10.47;;
14754;SDS011;7469;50.906;6.952;2023-12-04T11:54:16;13.67;;;9.57;;
14754;SDS011;7469;50.906;6.952;2023-12-04T11:56:58;14.77;;;10.17;;
14754;SDS011;7469;50.906;6.952;2023-12-04T11:59:27;16.37;;;10.93;;
14754;SDS011;7469;50.906;6.952;2023-12-04T12:01:55;15.50;;;10.77;;
14754;SDS011;7469;50.906;6.952;2023-12-04T12:04:25;16.13;;;10.40;;
14754;SDS011;7469;50.906;6.952;2023-12-04T12:06:57;17.40;;;10.97;;
14754;SDS011;7469;50.906;6.952;2023-12-04T12:09:30;16.33;;;10.88;;
14754;SDS011;7469;50.906;6.952;2023-12-04T12:11:58;19.63;;;11.55;;
14754;SDS011;7469;50.906;6.952;2023-12-04T12:14:28;18.48;;;11.57;;
14754;SDS011;7469;50.906;6.952;2023-12-04T12:16:57;16.93;;;11.33;;
14754;SDS011;7469;50.906;6.952;2023-12-04T12:19:27;17.07;;;11.53;;
14754;SDS011;7469;50.906;6.952;2023-12-04T12:21:56;19.53;;;10.47;;
14754;SDS011;7469;50.906;6.952;2023-12-04T12:24:24;20.08;;;11.15;;
14754;SDS011;7469;50.906;6.952;2023-12-04T12:26:54;15.05;;;10.35;;
14754;SDS011;7469;50.906;6.952;2023-12-04T12:29:22;15.97;;;10.53;;
14754;SDS011;7469;50.906;6.952;2023-12-04T12:31:50;18.98;;;12.77;;
14754;SDS011;7469;50.906;6.952;2023-12-04T12:34:19;17.47;;;11.63;;
14754;SDS011;7469;50.906;6.952;2023-12-04T12:36:47;15.73;;;11.30;;
14754;SDS011;7469;50.906;6.952;2023-12-04T12:39:15;16.77;;;10.95;;
14754;SDS011;7469;50.906;6.952;2023-12-04T12:41:49;18.27;;;10.20;;
14754;SDS011;7469;50.906;6.952;2023-12-04T12:44:18;19.10;;;12.23;;
14754;SDS011;7469;50.906;6.952;2023-12-04T12:46:47;15.70;;;10.95;;
14754;SDS011;7469;50.906;6.952;2023-12-04T12:49:17;15.25;;;10.15;;
14754;SDS011;7469;50.906;6.952;2023-12-04T12:52:01;17.40;;;11.18;;
14754;SDS011;7469;50.906;6.952;2023-12-04T12:54:30;13.40;;;10.00;;
14754;SDS011;7469;50.906;6.952;2023-12-04T12:56:59;15.23;;;10.13;;
14754;SDS011;7469;50.906;6.952;2023-12-04T12:59:30;16.07;;;10.03;;
14754;SDS011;7469;50.906;6.952;2023-12-04T13:01:58;15.43;;;10.23;;
14754;SDS011;7469;50.906;6.952;2023-12-04T13:04:33;16.48;;;10.75;;
14754;SDS011;7469;50.906;6.952;2023-12-04T13:07:02;16.30;;;11.30;;
14754;SDS011;7469;50.906;6.952;2023-12-04T13:09:32;14.90;;;10.63;;
14754;SDS011;7469;50.906;6.952;2023-12-04T13:12:02;16.97;;;10.73;;
14754;SDS011;7469;50.906;6.952;2023-12-04T13:14:33;16.83;;;11.20;;
14754;SDS011;7469;50.906;6.952;2023-12-04T13:17:02;15.90;;;11.10;;
14754;SDS011;7469;50.906;6.952;2023-12-04T13:19:30;14.15;;;10.23;;
14754;SDS011;7469;50.906;6.952;2023-12-04T13:22:00;14.57;;;9.27;;
14754;SDS011;7469;50.906;6.952;2023-12-04T13:24:30;15.73;;;11.33;;
14754;SDS011;7469;50.906;6.952;2023-12-04T13:26:58;16.27;;;10.27;;
14754;SDS011;7469;50.906;6.952;2023-12-04T13:29:26;14.82;;;10.10;;
14754;SDS011;7469;50.906;6.952;2023-12-04T13:31:56;15.97;;;10.70;;
14754;SDS011;7469;50.906;6.952;2023-12-04T13:34:23;14.50;;;10.37;;
14754;SDS011;7469;50.906;6.952;2023-12-04T13:36:52;14.77;;;10.20;;
14754;SDS011;7469;50.906;6.952;2023-12-04T13:39:20;13.50;;;9.93;;
14754;SDS011;7469;50.906;6.952;2023-12-04T13:41:54;16.13;;;10.30;;
14754;SDS011;7469;50.906;6.952;2023-12-04T13:44:39;17.70;;;10.40;;
14754;SDS011;7469;50.906;6.952;2023-12-04T13:47:09;13.10;;;9.23;;
14754;SDS011;7469;50.906;6.952;2023-12-04T13:49:38;17.17;;;10.10;;
14754;SDS011;7469;50.906;6.952;2023-12-04T13:52:06;13.50;;;9.47;;
14754;SDS011;7469;50.906;6.952;2023-12-04T13:54:34;14.47;;;10.10;;
14754;SDS011;7469;50.906;6.952;2023-12-04T13:57:10;12.83;;;8.80;;
14754;SDS011;7469;50.906;6.952;2023-12-04T13:59:45;15.48;;;10.32;;
14754;SDS011;7469;50.906;6.952;2023-12-04T14:02:14;17.30;;;9.32;;
14754;SDS011;7469;50.906;6.952;2023-12-04T14:04:43;13.85;;;9.68;;
14754;SDS011;7469;50.906;6.952;2023-12-04T14:07:12;15.77;;;9.80;;
14754;SDS011;7469;50.906;6.952;2023-12-04T14:09:41;15.07;;;9.13;;
14754;SDS011;7469;50.906;6.952;2023-12-04T14:12:11;12.43;;;9.20;;
14754;SDS011;7469;50.906;6.952;2023-12-04T14:14:38;14.43;;;10.15;;
14754;SDS011;7469;50.906;6.952;2023-12-04T14:17:06;14.27;;;9.73;;
14754;SDS011;7469;50.906;6.952;2023-12-04T14:19:36;15.55;;;9.93;;
14754;SDS011;7469;50.906;6.952;2023-12-04T14:22:05;11.00;;;8.52;;
14754;SDS011;7469;50.906;6.952;2023-12-04T14:24:33;14.20;;;9.73;;
14754;SDS011;7469;50.906;6.952;2023-12-04T14:27:03;14.63;;;10.63;;
14754;SDS011;7469;50.906;6.952;2023-12-04T14:29:32;13.38;;;9.32;;
14754;SDS011;7469;50.906;6.952;2023-12-04T14:32:00;13.27;;;9.50;;
14754;SDS011;7469;50.906;6.952;2023-12-04T14:34:28;14.57;;;9.37;;
14754;SDS011;7469;50.906;6.952;2023-12-04T14:36:57;12.60;;;9.10;;
14754;SDS011;7469;50.906;6.952;2023-12-04T14:39:25;14.13;;;9.77;;
14754;SDS011;7469;50.906;6.952;2023-12-04T14:41:53;13.87;;;9.90;;
14754;SDS011;7469;50.906;6.952;2023-12-04T14:44:21;13.80;;;9.50;;
14754;SDS011;7469;50.906;6.952;2023-12-04T14:46:50;13.73;;;8.37;;
14754;SDS011;7469;50.906;6.952;2023-12-04T14:49:17;12.33;;;9.17;;
14754;SDS011;7469;50.906;6.952;2023-12-04T14:51:45;13.30;;;9.13;;
14754;SDS011;7469;50.906;6.952;2023-12-04T14:54:16;13.30;;;8.80;;
14754;SDS011;7469;50.906;6.952;2023-12-04T14:56:48;14.50;;;9.23;;